Gardiner, NY

9:13 PM EDT on September 30, 2014 (GMT -0400)
Stewart International | Change Station
CLOSE
Current Station
Airport
Location: Newburgh,
Elevation: 492 ft
Nearby Weather Stations

Elev 492 ft 41.50 °N, 74.10 °W | Updated 3 hours ago

Mostly Cloudy
Mostly Cloudy
66 °F
Feels Like 66 °F
N
9
Wind Variable Wind from East

Today
High -- | Low -- °F
--% Chance of Precip.
Yesterday
High -- | Low -- °F
Precip. -- in
6:52 AM 6:40 PM
Waxing Crescent, 42% visible
Pressure 29.95 in
Visibility 15.0 miles
Clouds Few 2000 ft
Mostly Cloudy 5000 ft
Dew Point 59 °F
Humidity 78%
Rainfall 0.00 in
Snow Depth Not available.
UV 0 out of 12
Pollen 1.50 out of 12
PM2.5 Good
Flu Activity Not available.
METAR KSWF 302145Z 10008KT 15SM FEW020 BKN050 19/15 A2995

More Conditions Fewer Conditions

Pressure 29.95 in
Visibility 15.0 miles
Clouds Few 2000 ft
Mostly Cloudy 5000 ft
Dew Point 59 °F
Humidity 78%
Rainfall 0.00 in
Snow Depth Not available.
UV 0 out of 12
Pollen 1.50 out of 12
PM2.5 Good
Flu Activity Not available.
METAR KSWF 302145Z 10008KT 15SM FEW020 BKN050 19/15 A2995

More Conditions Fewer Conditions

10-Day Weather Forecast

Almanac

Astronomy

Sep. 30, 2014 Rise Set
Actual Time 6:52 AM EDT 6:40 PM EDT
Civil Twilight 6:24 AM EDT 7:07 PM EDT
Nautical Twilight 5:52 AM EDT 7:39 PM EDT
Astronomical Twilight 5:19 AM EDT 8:12 PM EDT
Moon 1:01 PM EDT (9/30) 11:04 PM EDT (9/30)
Length of Visible Light 12h 43m
Length of Day
11h 47m
Tomorrow will be 2m 46s shorter.
Waxing Crescent, 42% of the Moon is Illuminated
Today
Waxing Crescent
Oct 1
First Quarter
Oct 8
Full
Oct 15
Last Quarter
Oct 23
New

Today's Extremes

State Highs State Lows

Community

WunderPhotos

Upload Photos

1,757,815 photos uploaded!

Nearby

Air Quality

  Air Quality AQ Index Pollutant
Yesterday Good
PM2.5
Yesterday Good
OZONE
Current Good
PM2.5
Tuesday Moderate
PM2.5
Tuesday Good
OZONE
Wednesday Good
PM2.5

Snow Depth

Station Depth Elevation
No new snow has been reported.

Earthquake Activity

City Distance Mag. Time & Date
No recent earthquake activity has been reported nearby.
Minimum magnitude displayed is 2.5.

Coastal Water Temperatures

Place Temperature
No Stations Reporting

Nearby Weather Stations